.
WxDataArchive / Data Records for 2010-08-31
2010-08-30 August 2010 2010-09-01

Data Records for Tuesday, 31 August 2010

Time	Temp	Chill	HIndex	Humid	Dewpt	 Wind 	HiWind	WindDir	Rain 	Barom 
-----	----	-----	------	-----	-----	------	------	-------	-----	----- 
00:00	73.7	73.7	73.7	74	64.9	0	0	---	0.00	30.138 
00:05	73.5	73.5	73.5	74	64.7	0	0	---	0.00	30.138 
00:10	73.3	73.3	73.3	74	64.5	0	0	---	0.00	30.138 
00:15	73.0	73.0	73.0	75	64.6	0	0	---	0.00	30.138 
00:20	73.0	73.0	73.0	76	65.0	0	0	---	0.00	30.138 
00:25	72.8	72.8	72.8	77	65.2	0	0	---	0.00	30.138 
00:30	72.7	72.7	72.7	78	65.4	0	0	---	0.00	30.135 
00:35	72.5	72.5	72.5	78	65.2	0	0	---	0.00	30.135 
00:40	72.3	72.3	72.3	79	65.4	0	0	---	0.00	30.135 
00:45	72.1	72.1	72.1	79	65.2	0	0	---	0.00	30.138 
00:50	72.0	72.0	72.0	79	65.1	0	0	---	0.00	30.138 
00:55	71.8	71.8	71.8	79	64.9	0	0	---	0.00	30.138 
01:00	71.8	71.8	71.8	80	65.3	0	0	---	0.00	30.134 
01:05	71.6	71.6	71.6	80	65.1	0	0	---	0.00	30.134 
01:10	71.6	71.6	71.6	80	65.1	0	0	---	0.00	30.134 
01:15	71.5	71.5	71.5	81	65.4	0	0	---	0.00	30.133 
01:20	71.3	71.3	71.3	81	65.2	0	0	---	0.00	30.133 
01:25	71.1	71.1	71.1	81	65.0	0	0	---	0.00	30.133 
01:30	71.1	71.1	71.1	81	65.0	0	0	---	0.00	30.136 
01:35	70.9	70.9	70.9	82	65.1	0	0	---	0.00	30.136 
01:40	70.9	70.9	70.9	82	65.1	0	0	---	0.00	30.136 
01:45	70.8	70.8	70.8	82	65.0	0	0	---	0.00	30.138 
01:50	70.6	70.6	70.6	82	64.8	0	0	---	0.00	30.138 
01:55	70.6	70.6	70.6	82	64.8	0	0	---	0.00	30.138 
02:00	70.4	70.4	70.4	82	64.6	0	0	---	0.00	30.140 
02:05	70.4	70.4	70.4	83	65.0	0	0	---	0.00	30.140 
02:10	70.4	70.4	70.4	83	65.0	0	0	---	0.00	30.140 
02:15	70.4	70.4	70.4	83	65.0	0	0	---	0.00	30.142 
02:20	70.3	70.3	70.3	83	64.9	0	0	---	0.00	30.142 
02:25	70.3	70.3	70.3	83	64.9	0	0	---	0.00	30.142 
02:30	70.3	70.3	70.3	83	64.9	0	0	---	0.00	30.143 
02:35	70.3	70.3	70.3	84	65.2	0	0	---	0.00	30.143 
02:40	70.3	70.3	70.3	84	65.2	0	0	---	0.00	30.143 
02:45	70.3	70.3	70.3	84	65.2	0	0	---	0.00	30.143 
02:50	70.1	70.1	70.1	83	64.7	0	0	---	0.00	30.143 
02:55	70.3	70.3	70.3	83	64.9	0	0	---	0.00	30.143 
03:00	70.3	70.3	70.3	83	64.9	0	0	---	0.00	30.143 
03:05	70.4	70.4	70.4	83	65.0	0	0	---	0.00	30.143 
03:10	70.6	70.6	70.6	83	65.2	0	0	---	0.00	30.143 
03:15	70.6	70.6	70.6	82	64.8	0	0	---	0.00	30.144 
03:20	70.8	70.8	70.8	82	65.0	0	0	---	0.00	30.144 
03:25	70.9	70.9	70.9	81	64.8	0	0	---	0.00	30.144 
03:30	70.9	70.9	70.9	81	64.8	0	0	---	0.00	30.147 
03:35	71.1	71.1	71.1	81	65.0	0	0	---	0.00	30.147 
03:40	71.1	71.1	71.1	81	65.0	0	0	---	0.00	30.147 
03:45	71.1	71.1	71.1	81	65.0	0	0	---	0.00	30.146 
03:50	71.1	71.1	71.1	81	65.0	0	0	---	0.00	30.146 
03:55	71.1	71.1	71.1	81	65.0	0	0	---	0.00	30.146 
04:00	71.1	71.1	71.1	81	65.0	0	0	---	0.00	30.146 
04:05	71.1	71.1	71.1	81	65.0	0	0	---	0.00	30.146 
04:10	71.1	71.1	71.1	81	65.0	0	0	---	0.00	30.146 
04:15	71.1	71.1	71.1	81	65.0	0	0	---	0.00	30.149 
04:20	71.1	71.1	71.1	81	65.0	0	0	---	0.00	30.149 
04:25	71.1	71.1	71.1	81	65.0	0	0	---	0.00	30.149 
04:30	71.1	71.1	71.1	81	65.0	0	0	---	0.00	30.148 
04:35	71.3	71.3	71.3	81	65.2	0	0	---	0.00	30.148 
04:40	71.5	71.5	71.5	80	65.0	0	0	---	0.00	30.148 
04:45	71.5	71.5	71.5	80	65.0	0	0	---	0.00	30.148 
04:50	71.5	71.5	71.5	80	65.0	0	0	---	0.00	30.148 
04:55	71.5	71.5	71.5	80	65.0	0	0	---	0.00	30.148 
05:00	71.5	71.5	71.5	80	65.0	0	0	---	0.00	30.151 
05:05	71.6	71.6	71.6	80	65.1	0	0	---	0.00	30.151 
05:10	71.6	71.6	71.6	80	65.1	0	0	---	0.00	30.151 
05:15	71.8	71.8	71.8	80	65.3	0	0	---	0.00	30.150 
05:20	71.8	71.8	71.8	80	65.3	0	0	---	0.00	30.150 
05:25	72.1	72.1	72.1	79	65.2	0	0	---	0.00	30.150 
05:30	72.3	72.3	72.3	78	65.0	0	0	---	0.00	30.149 
05:35	72.7	72.7	72.7	78	65.4	0	1	270	0.00	30.149 
05:40	72.8	72.8	72.8	77	65.2	0	1	270	0.00	30.149 
05:45	73.2	73.2	73.2	76	65.2	0	3	270	0.00	30.153 
05:50	73.3	73.3	73.3	75	64.9	0	1	270	0.00	30.153 
05:55	73.7	73.7	73.7	75	65.3	0	1	270	0.00	30.153 
06:00	73.9	73.9	73.9	74	65.1	0	2	270	0.00	30.153 
06:05	74.0	74.0	74.0	74	65.2	0	1	270	0.00	30.153 
06:10	74.0	74.0	74.0	74	65.2	0	2	248	0.00	30.153 
06:15	74.0	74.0	74.0	73	64.8	0	1	248	0.00	30.154 
06:20	74.0	74.0	74.0	74	65.2	0	1	248	0.00	30.154 
06:25	74.0	74.0	74.0	74	65.2	0	1	248	0.00	30.154 
06:30	73.9	73.9	73.9	74	65.1	0	1	248	0.00	30.155 
06:35	73.9	73.9	73.9	74	65.1	0	4	248	0.00	30.155 
06:40	73.7	73.7	73.7	75	65.3	0	1	248	0.00	30.155 
06:45	73.5	73.5	73.5	75	65.1	0	0	---	0.00	30.158 
06:50	73.3	73.3	73.3	76	65.3	0	0	---	0.00	30.158 
06:55	73.2	73.2	73.2	76	65.2	0	0	---	0.00	30.158 
07:00	73.0	73.0	73.0	77	65.3	0	0	---	0.00	30.161 
07:05	72.8	72.8	72.8	77	65.2	0	0	---	0.00	30.161 
07:10	72.5	72.5	72.5	77	64.9	0	0	---	0.00	30.161 
07:15	72.3	72.3	72.3	78	65.0	0	0	---	0.00	30.165 
07:20	72.1	72.1	72.1	79	65.2	0	0	---	0.00	30.165 
07:25	72.1	72.1	72.1	79	65.2	0	0	---	0.00	30.165 
07:30	72.0	72.0	72.0	80	65.5	0	0	---	0.00	30.169 
07:35	71.8	71.8	71.8	80	65.3	0	0	---	0.00	30.169 
07:40	71.6	71.6	71.6	80	65.1	0	0	---	0.00	30.169 
07:45	71.6	71.6	71.6	81	65.4	0	0	---	0.00	30.170 
07:50	71.6	71.6	71.6	81	65.4	0	0	---	0.00	30.170 
07:55	71.8	71.8	71.8	81	65.6	0	0	---	0.00	30.170 
08:00	72.0	72.0	72.0	81	65.8	0	0	---	0.00	30.174 
08:05	72.3	72.3	72.3	81	66.1	0	0	---	0.00	30.174 
08:10	72.7	72.7	72.7	80	66.2	0	1	248	0.00	30.174 
08:15	73.0	73.0	73.0	79	66.1	0	1	248	0.00	30.178 
08:20	73.5	73.5	73.5	77	65.8	0	1	248	0.00	30.178 
08:25	73.9	73.9	73.9	77	66.2	0	1	248	0.00	30.178 
08:30	74.2	74.2	74.2	76	66.1	0	1	248	0.00	30.181 
08:35	74.6	74.6	74.6	75	66.1	0	0	---	0.00	30.181 
08:40	74.9	74.9	74.9	74	66.0	0	2	248	0.00	30.181 
08:45	75.3	75.3	76.5	75	66.8	0	1	248	0.00	30.179 
08:50	75.4	75.4	76.7	74	66.5	0	1	248	0.00	30.179 
08:55	75.8	75.8	77.3	73	66.5	0	1	248	0.00	30.179 
09:00	76.0	76.0	77.5	73	66.7	0	1	248	0.00	30.181 
09:05	76.1	76.1	77.7	72	66.4	0	3	248	0.00	30.181 
09:10	76.3	76.3	77.9	72	66.6	0	1	248	0.00	30.181 
09:15	76.7	76.7	78.4	71	66.6	0	1	248	0.00	30.181 
09:20	76.8	76.8	78.5	70	66.3	0	2	248	0.00	30.181 
09:25	77.2	77.2	79.0	69	66.2	0	3	248	0.00	30.181 
09:30	77.6	77.6	79.5	69	66.6	0	1	248	0.00	30.183 
09:35	77.9	77.9	79.8	68	66.5	0	2	248	0.00	30.183 
09:40	78.3	78.3	80.3	68	66.8	0	3	248	0.00	30.183 
09:45	78.6	78.6	80.6	66	66.3	0	2	248	0.00	30.179 
09:50	79.2	79.2	81.3	65	66.4	0	1	248	0.00	30.179 
09:55	79.6	79.6	81.7	64	66.3	0	3	248	0.00	30.179 
10:00	79.8	79.8	81.8	62	65.6	1	3	248	0.00	30.175 
10:05	80.1	80.1	82.2	62	65.9	1	4	248	0.00	30.175 
10:10	80.7	80.7	82.9	62	66.4	1	3	270	0.00	30.175 
10:15	81.1	81.1	83.0	59	65.4	1	3	270	0.00	30.176 
10:20	81.6	81.6	83.5	58	65.4	0	3	270	0.00	30.176 
10:25	82.2	82.2	84.3	58	65.9	1	3	270	0.00	30.176 
10:30	82.8	82.8	84.8	56	65.5	1	3	248	0.00	30.169 
10:35	83.2	83.2	84.9	54	64.8	1	5	315	0.00	30.169 
10:40	83.4	83.4	85.2	54	65.0	1	4	270	0.00	30.169 
10:45	83.6	83.6	85.5	54	65.2	1	4	270	0.00	30.161 
10:50	84.0	84.0	85.8	53	65.0	1	4	270	0.00	30.161 
10:55	84.0	84.0	85.8	53	65.0	1	4	270	0.00	30.161 
11:00	84.5	84.5	86.5	53	65.5	1	3	248	0.00	30.159 
11:05	84.9	84.9	86.8	52	65.3	1	4	90	0.00	30.159 
11:10	84.7	84.7	86.5	52	65.1	2	6	270	0.00	30.159 
11:15	84.5	84.5	86.3	52	64.9	2	4	270	0.00	30.160 
11:20	84.7	84.7	86.5	52	65.1	1	4	270	0.00	30.160 
11:25	85.1	85.1	86.9	51	64.9	1	3	270	0.00	30.160 
11:30	85.5	85.5	87.4	51	65.3	1	3	270	0.00	30.157 
11:35	86.1	86.1	88.0	50	65.3	1	4	270	0.00	30.157 
11:40	86.3	86.3	88.0	49	64.9	2	4	270	0.00	30.157 
11:45	85.9	85.9	87.7	50	65.1	2	7	270	0.00	30.149 
11:50	85.9	85.9	87.5	49	64.5	2	5	270	0.00	30.149 
11:55	86.3	86.3	88.0	49	64.9	1	3	270	0.00	30.149 
12:00	86.3	86.3	87.8	48	64.3	2	7	270	0.00	30.149 
12:05	86.5	86.5	88.3	49	65.0	1	5	248	0.00	30.149 
12:10	86.7	86.7	87.5	45	62.8	1	4	270	0.00	30.149 
12:15	87.2	87.2	87.9	44	62.6	2	5	338	0.00	30.145 
12:20	87.0	87.0	87.6	44	62.4	2	6	270	0.00	30.145 
12:25	87.4	87.4	88.5	45	63.4	1	5	135	0.00	30.145 
12:30	87.6	87.6	88.2	43	62.3	2	6	248	0.00	30.139 
12:35	87.6	87.6	88.8	45	63.6	1	4	270	0.00	30.139 
12:40	87.8	87.8	88.2	42	61.8	1	5	270	0.00	30.139 
12:45	88.0	88.0	88.2	41	61.3	2	5	68	0.00	30.131 
12:50	88.2	88.2	88.7	42	62.2	2	7	248	0.00	30.131 
12:55	87.6	87.6	87.9	42	61.6	2	6	248	0.00	30.131 
13:00	87.6	87.6	87.6	41	60.9	2	6	270	0.00	30.128 
13:05	88.0	88.0	87.9	40	60.6	2	5	292	0.00	30.128 
13:10	88.4	88.4	88.7	41	61.7	1	5	292	0.00	30.128 
13:15	88.8	88.8	88.1	37	59.1	2	7	112	0.00	30.128 
13:20	88.6	88.6	87.9	37	59.0	2	6	292	0.00	30.128 
13:25	88.8	88.8	87.6	35	57.6	2	4	248	0.00	30.128 
13:30	89.0	89.0	88.1	36	58.5	1	6	248	0.00	30.123 
13:35	89.0	89.0	88.7	38	60.1	2	7	90	0.00	30.123 
13:40	89.5	89.5	89.3	38	60.5	1	5	90	0.00	30.123 
13:45	89.3	89.3	89.1	38	60.3	2	5	270	0.00	30.114 
13:50	89.0	89.0	88.4	37	59.3	2	6	270	0.00	30.114 
13:55	89.5	89.5	88.8	36	59.0	2	5	292	0.00	30.114 
14:00	89.5	89.5	88.8	36	59.0	2	5	248	0.00	30.111 
14:05	89.9	89.9	89.0	35	58.5	1	5	270	0.00	30.111 
14:10	89.9	89.9	89.3	36	59.3	2	9	270	0.00	30.111 
14:15	90.1	90.1	89.0	34	57.9	2	5	270	0.00	30.107 
14:20	90.1	90.1	89.0	34	57.9	2	12	68	0.00	30.107 
14:25	90.1	90.1	88.5	32	56.2	2	6	270	0.00	30.107 
14:30	89.9	89.9	89.0	35	58.5	1	5	292	0.00	30.102 
14:35	90.3	90.3	89.0	33	57.2	1	4	292	0.00	30.102 
14:40	90.5	90.5	89.0	32	56.6	2	5	292	0.00	30.102 
14:45	90.5	90.5	89.5	34	58.3	2	5	338	0.00	30.097 
14:50	90.7	90.7	89.8	34	58.4	2	6	90	0.00	30.097 
14:55	90.5	90.5	89.8	35	59.1	2	11	248	0.00	30.097 
15:00	90.7	90.7	89.5	33	57.6	2	5	270	0.00	30.096 
15:05	90.7	90.7	89.5	33	57.6	3	6	270	0.00	30.096 
15:10	90.5	90.5	89.5	34	58.3	2	6	270	0.00	30.096 
15:15	91.2	91.2	90.5	34	58.9	1	4	270	0.00	30.086 
15:20	91.4	91.4	90.4	33	58.2	2	5	248	0.00	30.086 
15:25	91.4	91.4	90.1	32	57.3	2	5	270	0.00	30.086 
15:30	91.4	91.4	89.9	31	56.5	2	6	248	0.00	30.080 
15:35	91.2	91.2	89.9	32	57.2	2	6	248	0.00	30.080 
15:40	91.2	91.2	89.9	32	57.2	2	4	292	0.00	30.080 
15:45	91.2	91.2	90.2	33	58.0	2	6	90	0.00	30.075 
15:50	91.2	91.2	89.9	32	57.2	2	5	270	0.00	30.075 
15:55	91.0	91.0	89.9	33	57.9	2	5	270	0.00	30.075 
16:00	91.0	91.0	89.9	33	57.9	1	6	292	0.00	30.066 
16:05	90.7	90.7	89.5	33	57.6	2	5	292	0.00	30.066 
16:10	90.7	90.7	89.5	33	57.6	2	6	90	0.00	30.066 
16:15	90.7	90.7	89.8	34	58.4	2	6	0	0.00	30.064 
16:20	90.7	90.7	89.5	33	57.6	2	6	270	0.00	30.064 
16:25	91.0	91.0	89.6	32	57.0	2	6	270	0.00	30.064 
16:30	91.2	91.2	89.6	31	56.3	1	5	315	0.00	30.063 
16:35	91.0	91.0	89.6	32	57.0	2	5	270	0.00	30.063 
16:40	91.0	91.0	89.4	31	56.1	2	5	270	0.00	30.063 
16:45	91.0	91.0	89.9	33	57.9	2	5	270	0.00	30.060 
16:50	91.0	91.0	89.6	32	57.0	2	6	225	0.00	30.060 
16:55	90.7	90.7	89.2	32	56.7	2	5	270	0.00	30.060 
17:00	90.5	90.5	89.0	32	56.6	2	7	315	0.00	30.054 
17:05	90.5	90.5	89.0	32	56.6	2	4	270	0.00	30.054 
17:10	90.3	90.3	89.0	33	57.2	1	5	90	0.00	30.054 
17:15	90.3	90.3	88.7	32	56.4	1	4	270	0.00	30.048 
17:20	90.3	90.3	88.7	32	56.4	2	5	270	0.00	30.048 
17:25	90.3	90.3	89.0	33	57.2	1	3	270	0.00	30.048 
17:30	90.1	90.1	89.3	35	58.7	1	5	292	0.00	30.045 
17:35	90.1	90.1	88.8	33	57.1	2	7	90	0.00	30.045 
17:40	90.1	90.1	88.5	32	56.2	2	7	248	0.00	30.045 
17:45	89.9	89.9	88.5	33	56.9	2	6	270	0.00	30.043 
17:50	89.7	89.7	88.3	33	56.7	1	4	90	0.00	30.043 
17:55	89.7	89.7	88.0	32	55.9	2	4	270	0.00	30.043 
18:00	89.5	89.5	88.0	33	56.6	1	6	292	0.00	30.037 
18:05	89.3	89.3	88.0	34	57.2	1	3	270	0.00	30.037 
18:10	89.3	89.3	88.0	34	57.2	1	4	248	0.00	30.037 
18:15	89.0	89.0	87.7	34	56.9	2	6	248	0.00	30.037 
18:20	88.8	88.8	87.6	35	57.6	2	6	315	0.00	30.037 
18:25	88.6	88.6	87.4	35	57.4	1	4	90	0.00	30.037 
18:30	88.6	88.6	87.4	35	57.4	1	5	0	0.00	30.040 
18:35	88.4	88.4	87.2	35	57.2	1	5	270	0.00	30.040 
18:40	88.2	88.2	86.9	35	57.0	2	5	270	0.00	30.040 
18:45	88.2	88.2	86.9	35	57.0	1	3	270	0.00	30.039 
18:50	88.0	88.0	86.7	35	56.9	1	4	270	0.00	30.039 
18:55	87.8	87.8	86.5	35	56.7	1	3	270	0.00	30.039 
19:00	87.8	87.8	86.5	35	56.7	1	4	270	0.00	30.035 
19:05	87.8	87.8	86.5	35	56.7	1	4	270	0.00	30.035 
19:10	87.6	87.6	86.2	35	56.5	1	4	270	0.00	30.035 
19:15	87.4	87.4	86.2	36	57.1	1	7	292	0.00	30.033 
19:20	87.2	87.2	86.2	37	57.7	1	3	248	0.00	30.033 
19:25	87.0	87.0	85.8	36	56.8	1	4	248	0.00	30.033 
19:30	86.7	86.7	85.8	38	58.0	0	1	270	0.00	30.035 
19:35	86.5	86.5	85.6	38	57.8	0	3	270	0.00	30.035 
19:40	86.1	86.1	85.4	39	58.2	0	2	270	0.00	30.035 
19:45	85.9	85.9	85.1	39	58.0	0	1	270	0.00	30.033 
19:50	85.7	85.7	85.1	40	58.6	0	3	270	0.00	30.033 
19:55	85.3	85.3	84.8	41	58.9	0	1	270	0.00	30.033 
20:00	85.1	85.1	84.6	41	58.7	0	1	270	0.00	30.031 
20:05	84.7	84.7	84.4	42	59.0	0	0	---	0.00	30.031 
20:10	84.3	84.3	83.9	42	58.7	0	1	270	0.00	30.031 
20:15	84.0	84.0	83.8	43	59.1	0	0	---	0.00	30.026 
20:20	83.6	83.6	83.5	44	59.3	0	0	---	0.00	30.026 
20:25	83.4	83.4	83.3	44	59.2	0	0	---	0.00	30.026 
20:30	83.0	83.0	83.1	45	59.4	0	0	---	0.00	30.025 
20:35	82.6	82.6	82.8	46	59.7	0	0	---	0.00	30.025 
20:40	82.2	82.2	82.4	46	59.3	0	0	---	0.00	30.025 
20:45	81.8	81.8	82.1	47	59.6	0	0	---	0.00	30.022 
20:50	81.4	81.4	81.9	48	59.8	0	0	---	0.00	30.022 
20:55	81.1	81.1	81.6	48	59.5	0	0	---	0.00	30.022 
21:00	80.7	80.7	81.3	49	59.7	0	0	---	0.00	30.026 
21:05	80.3	80.3	81.1	50	59.9	0	0	---	0.00	30.026 
21:10	79.9	79.9	80.7	50	59.6	0	0	---	0.00	30.026 
21:15	79.6	79.6	80.5	51	59.9	0	0	---	0.00	30.030 
21:20	79.2	79.2	80.3	52	60.0	0	0	---	0.00	30.030 
21:25	79.0	79.0	80.1	52	59.8	0	0	---	0.00	30.030 
21:30	78.6	78.6	79.8	53	60.0	0	0	---	0.00	30.033 
21:35	78.5	78.5	79.8	54	60.4	0	0	---	0.00	30.033 
21:40	78.3	78.3	79.7	54	60.3	0	0	---	0.00	30.033 
21:45	78.1	78.1	79.5	54	60.1	0	0	---	0.00	30.032 
21:50	77.9	77.9	79.4	55	60.4	0	0	---	0.00	30.032 
21:55	77.7	77.7	79.2	55	60.2	0	0	---	0.00	30.032 
22:00	77.6	77.6	79.2	55	60.1	0	0	---	0.00	30.033 
22:05	77.6	77.6	79.2	55	60.1	0	0	---	0.00	30.033 
22:10	77.4	77.4	79.0	55	59.9	0	1	270	0.00	30.033 
22:15	77.4	77.4	79.0	56	60.5	0	0	---	0.00	30.028 
22:20	77.4	77.4	79.0	55	59.9	0	1	270	0.00	30.028 
22:25	77.6	77.6	79.2	55	60.1	0	1	270	0.00	30.028 
22:30	77.6	77.6	79.2	55	60.1	0	1	270	0.00	30.021 
22:35	77.6	77.6	79.2	55	60.1	0	1	270	0.00	30.021 
22:40	77.6	77.6	79.2	55	60.1	0	1	270	0.00	30.021 
22:45	77.7	77.7	79.2	55	60.2	0	1	270	0.00	30.018 
22:50	77.7	77.7	79.2	55	60.2	0	1	270	0.00	30.018 
22:55	77.6	77.6	79.2	56	60.6	0	2	270	0.00	30.018 
23:00	77.6	77.6	79.2	56	60.6	0	1	270	0.00	30.015 
23:05	77.6	77.6	79.2	56	60.6	0	2	270	0.00	30.015 
23:10	77.6	77.6	79.2	56	60.6	0	3	315	0.00	30.015 
23:15	77.6	77.6	79.2	57	61.1	0	2	248	0.00	30.014 
23:20	77.4	77.4	79.1	57	61.0	0	2	248	0.00	30.014 
23:25	77.4	77.4	79.1	57	61.0	0	3	248	0.00	30.014 
23:30	77.2	77.2	78.9	58	61.3	0	1	248	0.00	30.015 
23:35	77.2	77.2	78.9	58	61.3	0	2	248	0.00	30.015 
23:40	77.0	77.0	78.8	58	61.1	0	1	248	0.00	30.015 
23:45	76.8	76.8	78.6	58	60.9	0	1	248	0.00	30.012 
23:50	76.8	76.8	78.6	58	60.9	0	1	248	0.00	30.012 
23:55	76.7	76.7	78.5	59	61.3	0	2	248	0.00	30.012 

CoCoRaHS
IN-AL-39
A2 Web Hosting
Creative Commons License
GoDaddy
search engine by freefind advanced

loaded 2018-11-17 18:52:10 • last modified 2010-11-18 10:43:29
Privacy PolicyDisclaimer
• wx.awcolley.com is powered by PmWiki v.2002016 •
• all content (unless otherwise noted) © 2018 A W Colley